createdAt,value
2022-10-04T00:00:31.861Z,123.80
2022-10-04T00:01:31.922Z,123.62
2022-10-04T00:02:31.919Z,124.26
2022-10-04T00:03:31.963Z,123.99
2022-10-04T00:04:32.003Z,123.89
2022-10-04T00:05:32.058Z,123.71
2022-10-04T00:06:32.064Z,123.89
2022-10-04T00:07:32.130Z,124.81
2022-10-04T00:08:32.138Z,125.00
2022-10-04T00:09:32.158Z,124.54
2022-10-04T00:10:32.208Z,124.26
2022-10-04T00:11:32.248Z,124.08
2022-10-04T00:12:32.269Z,124.08
2022-10-04T00:13:32.331Z,123.71
2022-10-04T00:14:32.293Z,124.08
2022-10-04T00:15:32.374Z,123.80
2022-10-04T00:16:32.426Z,123.71
2022-10-04T00:17:32.438Z,123.44
2022-10-04T00:18:32.421Z,123.53
2022-10-04T00:19:32.472Z,124.26
2022-10-04T00:20:32.527Z,123.62
2022-10-04T00:21:32.575Z,124.08
2022-10-04T00:22:32.599Z,123.35
2022-10-04T00:23:32.649Z,123.71
2022-10-04T00:24:32.659Z,123.80
2022-10-04T00:25:32.670Z,123.62
2022-10-04T00:26:32.765Z,123.71
2022-10-04T00:27:32.768Z,124.35
2022-10-04T00:28:32.844Z,123.62
2022-10-04T00:29:32.863Z,123.35
2022-10-04T00:30:32.910Z,123.26
2022-10-04T00:31:32.964Z,122.99
2022-10-04T00:32:32.961Z,123.89
2022-10-04T00:33:33.004Z,122.99
2022-10-04T00:34:33.118Z,123.26
2022-10-04T00:35:33.082Z,122.99
2022-10-04T00:36:33.052Z,122.81
2022-10-04T00:37:33.158Z,122.90
2022-10-04T00:38:33.167Z,123.17
2022-10-04T00:39:33.197Z,123.08
2022-10-04T00:40:33.255Z,122.54
2022-10-04T00:41:33.280Z,123.26
2022-10-04T00:42:33.345Z,123.44
2022-10-04T00:43:33.363Z,123.08
2022-10-04T00:44:33.387Z,123.62
2022-10-04T00:45:33.416Z,122.72
2022-10-04T00:46:33.513Z,122.81
2022-10-04T00:47:33.522Z,123.44
2022-10-04T00:48:33.520Z,122.81
2022-10-04T00:49:33.552Z,123.44
2022-10-04T00:50:33.560Z,123.17
2022-10-04T00:51:33.621Z,123.44
2022-10-04T00:52:33.653Z,123.17
2022-10-04T00:53:33.670Z,123.62
2022-10-04T00:54:33.702Z,123.80
2022-10-04T00:55:33.746Z,124.26
2022-10-04T00:56:33.766Z,123.89
2022-10-04T00:57:33.813Z,123.62
2022-10-04T00:58:33.819Z,123.53
2022-10-04T00:59:33.916Z,124.81
2022-10-04T01:00:33.913Z,123.89
2022-10-04T01:01:34.010Z,123.80
2022-10-04T01:02:34.105Z,123.53
2022-10-04T01:03:33.996Z,123.80
2022-10-04T01:04:34.072Z,124.08
2022-10-04T01:05:34.080Z,123.99
2022-10-04T01:06:34.132Z,124.81
2022-10-04T01:07:34.668Z,125.09
2022-10-04T01:08:34.206Z,124.17
2022-10-04T01:09:34.271Z,124.81
2022-10-04T01:10:34.281Z,124.08
2022-10-04T01:11:34.298Z,124.26
2022-10-04T01:12:34.334Z,124.26
2022-10-04T01:13:34.356Z,124.26
2022-10-04T01:14:34.388Z,125.00
2022-10-04T01:15:34.509Z,124.54
2022-10-04T01:16:34.464Z,124.91
2022-10-04T01:17:34.532Z,124.54
2022-10-04T01:18:34.581Z,125.00
2022-10-04T01:19:34.571Z,125.84
2022-10-04T01:20:34.603Z,125.28
2022-10-04T01:21:34.642Z,125.94
2022-10-04T01:22:34.686Z,125.19
2022-10-04T01:23:34.736Z,125.19
2022-10-04T01:24:34.770Z,124.91
2022-10-04T01:25:34.778Z,125.09
2022-10-04T01:26:34.836Z,125.56
2022-10-04T01:27:34.927Z,126.12
2022-10-04T01:28:35.015Z,126.03
2022-10-04T01:29:34.943Z,125.47
2022-10-04T01:30:34.992Z,125.75
2022-10-04T01:31:35.126Z,125.75
2022-10-04T01:32:35.065Z,125.94
2022-10-04T01:33:35.115Z,126.12
2022-10-04T01:34:35.121Z,125.47
2022-10-04T01:35:35.168Z,125.75
2022-10-04T01:36:35.196Z,126.03
2022-10-04T01:37:35.296Z,125.47
2022-10-04T01:38:35.301Z,125.37
2022-10-04T01:39:35.341Z,125.19
2022-10-04T01:40:35.465Z,126.03
2022-10-04T01:41:35.435Z,125.75
2022-10-04T01:42:35.467Z,125.00
2022-10-04T01:43:35.522Z,124.91
2022-10-04T01:44:35.523Z,125.28
2022-10-04T01:45:35.576Z,124.72
2022-10-04T01:46:35.673Z,124.54
2022-10-04T01:47:35.681Z,125.09
2022-10-04T01:48:35.675Z,124.72
2022-10-04T01:49:35.733Z,124.72
2022-10-04T01:50:35.786Z,125.65
2022-10-04T01:51:35.809Z,124.91
2022-10-04T01:52:35.827Z,125.00
2022-10-04T01:53:35.862Z,125.56
2022-10-04T01:54:35.920Z,125.19
2022-10-04T01:55:36.025Z,125.47
2022-10-04T01:56:36.131Z,125.00
2022-10-04T01:57:36.050Z,125.19
2022-10-04T01:58:36.107Z,125.84
2022-10-04T01:59:36.151Z,125.47
2022-10-04T02:00:36.188Z,125.19
2022-10-04T02:01:36.309Z,125.47
2022-10-04T02:02:36.278Z,125.47
2022-10-04T02:03:36.369Z,125.75
2022-10-04T02:04:36.406Z,125.94
2022-10-04T02:05:36.379Z,125.47
2022-10-04T02:06:36.419Z,125.28
2022-10-04T02:07:36.444Z,125.94
2022-10-04T02:08:36.505Z,126.03
2022-10-04T02:09:36.524Z,125.75
2022-10-04T02:10:41.003Z,125.65
2022-10-04T02:11:36.603Z,126.03
2022-10-04T02:12:36.650Z,125.28
2022-10-04T02:13:36.692Z,125.19
2022-10-04T02:14:36.772Z,124.08
2022-10-04T02:15:36.815Z,122.54
2022-10-04T02:16:36.829Z,120.78
2022-10-04T02:17:36.832Z,119.58
2022-10-04T02:18:36.888Z,118.90
2022-10-04T02:19:36.923Z,118.31
2022-10-04T02:20:36.966Z,118.48
2022-10-04T02:21:37.004Z,118.48
2022-10-04T02:22:37.015Z,117.57
2022-10-04T02:23:37.048Z,118.65
2022-10-04T02:24:37.050Z,117.40
2022-10-04T02:25:37.074Z,118.23
2022-10-04T02:26:37.152Z,117.32
2022-10-04T02:27:37.156Z,117.82
2022-10-04T02:28:37.180Z,117.24
2022-10-04T02:29:37.235Z,117.00
2022-10-04T02:30:37.287Z,117.73
2022-10-04T02:31:37.323Z,117.24
2022-10-04T02:32:37.294Z,117.24
2022-10-04T02:33:37.371Z,117.24
2022-10-04T02:34:37.370Z,118.23
2022-10-04T02:35:37.450Z,117.16
2022-10-04T02:36:37.495Z,117.57
2022-10-04T02:37:37.487Z,118.48
2022-10-04T02:38:37.563Z,118.07
2022-10-04T02:39:37.611Z,117.73
2022-10-04T02:40:37.626Z,118.15
2022-10-04T02:41:37.688Z,117.40
2022-10-04T02:42:37.710Z,118.31
2022-10-04T02:43:37.737Z,117.57
2022-10-04T02:44:37.802Z,117.49
2022-10-04T02:45:37.809Z,117.90
2022-10-04T02:46:37.925Z,117.98
2022-10-04T02:47:37.913Z,118.07
2022-10-04T02:48:37.909Z,117.40
2022-10-04T02:49:37.955Z,117.57
2022-10-04T02:50:37.994Z,117.16
2022-10-04T02:51:38.041Z,117.40
2022-10-04T02:52:38.042Z,117.82
2022-10-04T02:53:38.097Z,118.15
2022-10-04T02:54:38.187Z,117.40
2022-10-04T02:55:38.193Z,117.32
2022-10-04T02:56:38.185Z,117.73
2022-10-04T02:57:38.231Z,117.73
2022-10-04T02:58:38.256Z,116.75
2022-10-04T02:59:38.297Z,117.16
2022-10-04T03:00:38.401Z,116.92
2022-10-04T03:01:38.417Z,117.24
2022-10-04T03:02:38.477Z,116.51
2022-10-04T03:03:38.423Z,116.67
2022-10-04T03:04:38.447Z,117.24
2022-10-04T03:05:38.524Z,116.51
2022-10-04T03:06:38.505Z,116.83
2022-10-04T03:07:38.560Z,116.59
2022-10-04T03:08:38.570Z,117.00
2022-10-04T03:09:38.617Z,116.83
2022-10-04T03:10:38.703Z,117.08
2022-10-04T03:11:38.691Z,116.83
2022-10-04T03:12:38.701Z,117.24
2022-10-04T03:13:38.755Z,117.32
2022-10-04T03:14:38.843Z,117.24
2022-10-04T03:15:38.885Z,117.57
2022-10-04T03:16:38.888Z,117.16
2022-10-04T03:17:38.916Z,117.57
2022-10-04T03:18:38.943Z,116.75
2022-10-04T03:19:38.977Z,117.08
2022-10-04T03:20:38.971Z,116.67
2022-10-04T03:21:39.254Z,117.49
2022-10-04T03:22:41.634Z,116.67
2022-10-04T03:23:39.080Z,116.67
2022-10-04T03:24:39.100Z,117.49
2022-10-04T03:25:39.202Z,117.08
2022-10-04T03:26:39.188Z,117.00
2022-10-04T03:27:39.238Z,118.23
2022-10-04T03:28:39.298Z,118.31
2022-10-04T03:29:39.341Z,118.23
2022-10-04T03:30:39.367Z,118.23
2022-10-04T03:31:39.524Z,118.90
2022-10-04T03:32:39.466Z,119.32
2022-10-04T03:33:39.487Z,118.90
2022-10-04T03:34:39.534Z,119.49
2022-10-04T03:35:39.582Z,119.75
2022-10-04T03:36:39.588Z,119.75
2022-10-04T03:37:39.661Z,119.41
2022-10-04T03:38:39.676Z,120.00
2022-10-04T03:39:39.718Z,120.00
2022-10-04T03:40:39.766Z,120.09
2022-10-04T03:41:40.051Z,120.78
2022-10-04T03:42:39.838Z,120.52
2022-10-04T03:43:39.891Z,120.69
2022-10-04T03:44:39.887Z,121.13
2022-10-04T03:45:39.984Z,121.21
2022-10-04T03:46:39.980Z,121.48
2022-10-04T03:47:39.986Z,121.83
2022-10-04T03:48:40.089Z,122.01
2022-10-04T03:49:40.064Z,122.27
2022-10-04T03:50:40.110Z,122.72
2022-10-04T03:51:40.433Z,122.72
2022-10-04T03:52:40.172Z,123.08
2022-10-04T03:53:40.192Z,123.53
2022-10-04T03:54:40.362Z,123.99
2022-10-04T03:55:40.249Z,124.26
2022-10-04T03:56:40.276Z,125.19
2022-10-04T03:57:40.300Z,125.09
2022-10-04T03:58:40.348Z,125.56
2022-10-04T03:59:40.375Z,126.22
2022-10-04T04:00:40.485Z,126.31
2022-10-04T04:01:40.817Z,126.31
2022-10-04T04:02:45.653Z,126.79
2022-10-04T04:03:40.513Z,127.27
2022-10-04T04:04:40.568Z,128.24
2022-10-04T04:05:40.625Z,128.44
2022-10-04T04:06:40.643Z,128.34
2022-10-04T04:07:40.690Z,129.23
2022-10-04T04:08:40.730Z,129.63
2022-10-04T04:09:40.788Z,129.83
2022-10-04T04:10:40.859Z,129.93
2022-10-04T04:11:41.073Z,130.94
2022-10-04T04:12:40.862Z,131.14
2022-10-04T04:13:40.876Z,131.66
2022-10-04T04:14:40.926Z,131.76
2022-10-04T04:15:41.124Z,131.86
2022-10-04T04:16:41.058Z,132.38
2022-10-04T04:17:41.053Z,132.80
2022-10-04T04:18:41.107Z,132.70
2022-10-04T04:19:41.122Z,133.64
2022-10-04T04:20:41.189Z,133.22
2022-10-04T04:21:41.514Z,133.86
2022-10-04T04:22:41.308Z,135.26
2022-10-04T04:23:41.309Z,134.50
2022-10-04T04:24:41.357Z,134.93
2022-10-04T04:25:41.402Z,135.48
2022-10-04T04:26:41.434Z,135.48
2022-10-04T04:27:41.481Z,135.69
2022-10-04T04:28:41.525Z,135.80
2022-10-04T04:29:41.540Z,136.24
2022-10-04T04:30:41.669Z,136.57
2022-10-04T04:31:41.965Z,136.91
2022-10-04T04:32:41.685Z,138.03
2022-10-04T04:33:41.729Z,136.80
2022-10-04T04:34:41.801Z,137.24
2022-10-04T04:35:41.806Z,137.13
2022-10-04T04:36:41.856Z,137.58
2022-10-04T04:37:41.929Z,137.47
2022-10-04T04:38:41.965Z,137.81
2022-10-04T04:39:41.994Z,138.15
2022-10-04T04:40:42.051Z,138.60
2022-10-04T04:41:45.682Z,138.95
2022-10-04T04:42:42.115Z,138.49
2022-10-04T04:43:42.140Z,138.49
2022-10-04T04:44:42.182Z,138.37
2022-10-04T04:45:42.257Z,138.72
2022-10-04T04:46:42.303Z,138.49
2022-10-04T04:47:42.323Z,138.83
2022-10-04T04:48:42.315Z,138.60
2022-10-04T04:49:42.425Z,138.83
2022-10-04T04:50:42.423Z,139.18
2022-10-04T04:51:42.709Z,139.06
2022-10-04T04:52:42.494Z,139.18
2022-10-04T04:53:42.564Z,139.06
2022-10-04T04:54:42.638Z,139.64
2022-10-04T04:56:02.365Z,139.52
2022-10-04T04:56:42.698Z,139.41
2022-10-04T04:57:42.681Z,138.95
2022-10-04T04:58:42.721Z,139.52
2022-10-04T04:59:42.772Z,139.52
2022-10-04T05:00:42.855Z,139.87
2022-10-04T05:01:43.289Z,139.41
2022-10-04T05:02:42.877Z,139.75
2022-10-04T05:03:42.945Z,139.87
2022-10-04T05:04:42.982Z,140.22
2022-10-04T05:05:42.985Z,140.34
2022-10-04T05:06:43.066Z,139.99
2022-10-04T05:07:43.114Z,140.46
2022-10-04T05:08:43.124Z,140.57
2022-10-04T05:09:43.170Z,140.22
2022-10-04T05:10:43.224Z,140.69
2022-10-04T05:11:43.490Z,140.81
2022-10-04T05:12:43.291Z,141.04
2022-10-04T05:13:43.354Z,140.57
2022-10-04T05:14:43.361Z,141.16
2022-10-04T05:15:43.379Z,141.04
2022-10-04T05:16:43.552Z,142.00
2022-10-04T05:17:43.470Z,141.64
2022-10-04T05:18:43.550Z,141.52
2022-10-04T05:19:43.568Z,142.24
2022-10-04T05:20:43.613Z,142.12
2022-10-04T05:21:43.996Z,141.88
2022-10-04T05:22:43.736Z,142.84
2022-10-04T05:23:43.738Z,142.60
2022-10-04T05:24:43.819Z,142.60
2022-10-04T05:25:43.830Z,143.33
2022-10-04T05:26:43.880Z,142.12
2022-10-04T05:27:43.897Z,142.72
2022-10-04T05:28:43.969Z,142.96
2022-10-04T05:29:43.981Z,142.96
2022-10-04T05:30:44.043Z,142.96
2022-10-04T05:31:44.473Z,143.21
2022-10-04T05:32:44.110Z,142.96
2022-10-04T05:33:44.117Z,143.33
2022-10-04T05:34:44.223Z,143.21
2022-10-04T05:35:44.234Z,143.57
2022-10-04T05:36:44.245Z,144.07
2022-10-04T05:37:44.260Z,143.82
2022-10-04T05:38:44.311Z,143.70
2022-10-04T05:39:44.320Z,144.93
2022-10-04T05:40:44.376Z,143.94
2022-10-04T05:41:44.630Z,144.31
2022-10-04T05:42:44.424Z,144.19
2022-10-04T05:43:44.449Z,144.68
2022-10-04T05:44:44.530Z,144.56
2022-10-04T05:45:44.834Z,145.06
2022-10-04T05:46:44.646Z,144.81
2022-10-04T05:47:44.641Z,145.06
2022-10-04T05:48:44.690Z,144.93
2022-10-04T05:49:44.705Z,145.18
2022-10-04T05:50:44.749Z,145.56
2022-10-04T05:51:45.238Z,145.44
2022-10-04T05:52:44.797Z,145.31
2022-10-04T05:53:44.860Z,145.82
2022-10-04T05:54:44.888Z,145.69
2022-10-04T05:55:44.921Z,145.69
2022-10-04T05:56:44.963Z,146.45
2022-10-04T05:57:45.041Z,146.32
2022-10-04T05:58:45.069Z,146.20
2022-10-04T05:59:45.103Z,146.32
2022-10-04T06:00:45.102Z,146.20
2022-10-04T06:01:45.473Z,146.58
2022-10-04T06:02:45.303Z,146.20
2022-10-04T06:03:45.210Z,146.32
2022-10-04T06:04:45.280Z,146.71
2022-10-04T06:05:45.273Z,146.07
2022-10-04T06:06:45.331Z,147.61
2022-10-04T06:07:45.342Z,147.09
2022-10-04T06:08:45.445Z,146.96
2022-10-04T06:09:45.387Z,147.48
2022-10-04T06:10:45.414Z,146.96
2022-10-04T06:11:45.816Z,146.83
2022-10-04T06:12:45.464Z,148.00
2022-10-04T06:13:45.535Z,148.00
2022-10-04T06:14:45.537Z,148.00
2022-10-04T06:15:45.561Z,148.39
2022-10-04T06:16:45.688Z,148.13
2022-10-04T06:17:45.667Z,148.52
2022-10-04T06:18:45.695Z,148.91
2022-10-04T06:19:45.728Z,148.52
2022-10-04T06:20:45.784Z,148.65
2022-10-04T06:21:46.080Z,148.78
2022-10-04T06:22:45.892Z,149.18
2022-10-04T06:23:45.913Z,148.39
2022-10-04T06:24:45.933Z,148.78
2022-10-04T06:25:45.977Z,149.44
2022-10-04T06:26:46.015Z,148.52
2022-10-04T06:27:46.047Z,149.31
2022-10-04T06:28:46.094Z,149.58
2022-10-04T06:29:46.122Z,149.58
2022-10-04T06:30:46.275Z,149.84
2022-10-04T06:31:46.558Z,149.84
2022-10-04T06:32:46.247Z,150.65
2022-10-04T06:33:46.296Z,150.24
2022-10-04T06:34:46.277Z,150.38
2022-10-04T06:35:46.325Z,150.24
2022-10-04T06:36:46.367Z,150.38
2022-10-04T06:37:46.418Z,150.65
2022-10-04T06:38:46.453Z,150.92
2022-10-04T06:39:46.523Z,150.38
2022-10-04T06:40:46.561Z,150.78
2022-10-04T06:41:46.671Z,151.74
2022-10-04T06:42:46.661Z,151.33
2022-10-04T06:43:46.671Z,151.05
2022-10-04T06:44:46.763Z,151.19
2022-10-04T06:45:46.787Z,150.92
2022-10-04T06:46:46.764Z,152.01
2022-10-04T06:47:46.822Z,152.01
2022-10-04T06:48:46.840Z,151.87
2022-10-04T06:49:46.919Z,152.01
2022-10-04T06:50:46.916Z,151.19
2022-10-04T06:51:47.032Z,151.46
2022-10-04T06:52:46.999Z,151.74
2022-10-04T06:53:46.999Z,152.70
2022-10-04T06:54:47.066Z,152.15
2022-10-04T06:55:47.080Z,152.56
2022-10-04T06:56:47.139Z,152.98
2022-10-04T06:57:47.203Z,152.98
2022-10-04T06:58:47.180Z,153.68
2022-10-04T06:59:47.198Z,152.43
2022-10-04T07:00:47.330Z,152.98
2022-10-04T07:01:47.810Z,152.56
2022-10-04T07:02:47.373Z,152.84
2022-10-04T07:03:51.368Z,153.54
2022-10-04T07:05:07.683Z,153.96
2022-10-04T07:05:47.425Z,154.81
2022-10-04T07:06:47.454Z,153.68
2022-10-04T07:07:47.506Z,153.68
2022-10-04T07:08:47.530Z,153.82
2022-10-04T07:09:47.580Z,153.40
2022-10-04T07:10:47.618Z,153.12
2022-10-04T07:11:47.662Z,153.68
2022-10-04T07:12:47.701Z,154.38
2022-10-04T07:13:47.704Z,153.96
2022-10-04T07:14:47.746Z,154.24
2022-10-04T07:15:47.791Z,154.38
2022-10-04T07:16:47.790Z,154.38
2022-10-04T07:17:47.913Z,155.10
2022-10-04T07:18:47.905Z,154.38
2022-10-04T07:19:47.928Z,154.53
2022-10-04T07:20:47.930Z,155.10
2022-10-04T07:21:48.467Z,154.38
2022-10-04T07:22:48.011Z,154.95
2022-10-04T07:23:48.062Z,155.24
2022-10-04T07:24:48.116Z,155.10
2022-10-04T07:25:48.174Z,155.10
2022-10-04T07:26:48.149Z,155.38
2022-10-04T07:27:48.199Z,155.96
2022-10-04T07:28:48.267Z,154.67
2022-10-04T07:29:48.271Z,155.67
2022-10-04T07:30:48.436Z,155.53
2022-10-04T07:31:48.357Z,156.25
2022-10-04T07:32:48.444Z,155.82
2022-10-04T07:33:48.435Z,155.96
2022-10-04T07:34:48.508Z,155.96
2022-10-04T07:35:48.551Z,156.25
2022-10-04T07:36:48.550Z,155.82
2022-10-04T07:37:48.598Z,156.25
2022-10-04T07:38:48.644Z,155.96
2022-10-04T07:39:48.673Z,157.13
2022-10-04T07:40:48.700Z,156.54
2022-10-04T07:41:48.776Z,155.96
2022-10-04T07:42:48.814Z,157.13
2022-10-04T07:43:48.895Z,156.25
2022-10-04T07:44:48.895Z,157.13
2022-10-04T07:45:48.988Z,157.27
2022-10-04T07:46:49.008Z,157.13
2022-10-04T07:47:49.023Z,157.13
2022-10-04T07:48:49.063Z,156.83
2022-10-04T07:49:49.080Z,157.71
2022-10-04T07:50:49.108Z,157.57
2022-10-04T07:51:49.173Z,156.40
2022-10-04T07:52:49.183Z,157.42
2022-10-04T07:53:49.219Z,157.86
2022-10-04T07:54:49.260Z,158.31
2022-10-04T07:55:49.321Z,157.57
2022-10-04T07:56:49.361Z,157.57
2022-10-04T07:57:49.395Z,157.71
2022-10-04T07:58:49.441Z,158.76
2022-10-04T07:59:49.471Z,158.01
2022-10-04T08:00:49.529Z,157.71
2022-10-04T08:01:49.629Z,158.16
2022-10-04T08:02:49.742Z,158.31
2022-10-04T08:03:49.625Z,158.01
2022-10-04T08:04:49.680Z,157.86
2022-10-04T08:05:49.711Z,158.91
2022-10-04T08:06:49.759Z,158.61
2022-10-04T08:07:49.786Z,159.21
2022-10-04T08:08:49.849Z,158.76
2022-10-04T08:09:49.853Z,159.21
2022-10-04T08:10:52.182Z,158.91
2022-10-04T08:11:49.939Z,158.61
2022-10-04T08:12:49.980Z,158.91
2022-10-04T08:13:50.037Z,159.36
2022-10-04T08:14:50.196Z,158.91
2022-10-04T08:15:50.167Z,159.06
2022-10-04T08:16:50.134Z,158.46
2022-10-04T08:17:50.158Z,159.66
2022-10-04T08:18:50.211Z,159.51
2022-10-04T08:19:50.271Z,159.21
2022-10-04T08:20:50.284Z,159.06
2022-10-04T08:21:50.322Z,159.06
2022-10-04T08:22:50.348Z,158.76
2022-10-04T08:23:50.405Z,159.36
2022-10-04T08:24:53.465Z,158.91
2022-10-04T08:25:50.498Z,160.12
2022-10-04T08:26:50.491Z,159.81
2022-10-04T08:27:50.614Z,159.97
2022-10-04T08:28:50.565Z,159.81
2022-10-04T08:29:50.625Z,160.42
2022-10-04T08:30:50.687Z,159.97
2022-10-04T08:31:50.705Z,160.27
2022-10-04T08:32:50.728Z,159.81
2022-10-04T08:33:50.949Z,159.97
2022-10-04T08:34:50.806Z,160.27
2022-10-04T08:35:50.860Z,160.12
2022-10-04T08:36:50.898Z,160.42
2022-10-04T08:37:50.937Z,160.27
2022-10-04T08:38:50.984Z,160.12
2022-10-04T08:39:51.037Z,160.88
2022-10-04T08:40:51.085Z,159.97
2022-10-04T08:41:51.142Z,160.12
2022-10-04T08:42:51.147Z,161.19
2022-10-04T08:43:51.205Z,161.81
2022-10-04T08:44:51.257Z,160.27
2022-10-04T08:45:51.365Z,160.58
2022-10-04T08:46:51.444Z,160.27
2022-10-04T08:47:51.396Z,160.73
2022-10-04T08:48:51.452Z,161.04
2022-10-04T08:49:51.473Z,160.88
2022-10-04T08:50:51.537Z,160.73
2022-10-04T08:51:51.582Z,160.73
2022-10-04T08:52:51.617Z,160.88
2022-10-04T08:53:51.648Z,160.73
2022-10-04T08:54:51.692Z,160.73
2022-10-04T08:55:51.739Z,161.50
2022-10-04T08:56:51.820Z,160.88
2022-10-04T08:57:51.794Z,160.88
2022-10-04T08:58:51.808Z,161.19
2022-10-04T08:59:51.861Z,161.50
2022-10-04T09:00:51.901Z,161.35
2022-10-04T09:01:52.021Z,161.50
2022-10-04T09:02:52.031Z,161.81
2022-10-04T09:03:52.022Z,161.19
2022-10-04T09:04:52.080Z,161.04
2022-10-04T09:05:52.142Z,162.60
2022-10-04T09:06:53.731Z,161.50
2022-10-04T09:07:52.221Z,161.97
2022-10-04T09:08:52.227Z,162.75
2022-10-04T09:09:52.305Z,162.44
2022-10-04T09:10:52.325Z,161.97
2022-10-04T09:11:52.427Z,162.91
2022-10-04T09:12:52.401Z,161.97
2022-10-04T09:13:52.402Z,162.75
2022-10-04T09:14:52.442Z,162.44
2022-10-04T09:15:52.563Z,161.97
2022-10-04T09:16:52.501Z,161.97
2022-10-04T09:17:52.539Z,162.13
2022-10-04T09:18:52.616Z,162.60
2022-10-04T09:19:52.764Z,162.28
2022-10-04T09:20:52.660Z,162.44
2022-10-04T09:21:52.704Z,163.07
2022-10-04T09:22:52.732Z,163.07
2022-10-04T09:23:52.811Z,162.91
2022-10-04T09:24:52.827Z,163.54
2022-10-04T09:25:52.865Z,163.07
2022-10-04T09:26:52.942Z,162.28
2022-10-04T09:27:55.259Z,163.70
2022-10-04T09:28:53.055Z,162.75
2022-10-04T09:29:53.038Z,162.75
2022-10-04T09:30:53.131Z,162.75
2022-10-04T09:31:53.140Z,163.23
2022-10-04T09:32:53.183Z,162.28
2022-10-04T09:33:53.178Z,162.75
2022-10-04T09:34:53.204Z,163.54
2022-10-04T09:35:53.247Z,163.54
2022-10-04T09:36:53.271Z,163.23
2022-10-04T09:37:53.339Z,163.70
2022-10-04T09:39:11.532Z,164.51
2022-10-04T09:39:53.377Z,163.54
2022-10-04T09:40:53.439Z,163.70
2022-10-04T09:41:53.435Z,164.18
2022-10-04T09:42:53.476Z,164.35
2022-10-04T09:43:53.509Z,164.67
2022-10-04T09:44:53.575Z,164.02
2022-10-04T09:45:53.661Z,164.35
2022-10-04T09:46:56.512Z,164.51
2022-10-04T09:47:53.670Z,163.86
2022-10-04T09:48:53.701Z,164.35
2022-10-04T09:49:53.761Z,164.67
2022-10-04T09:50:53.769Z,164.83
2022-10-04T09:51:53.795Z,164.18
2022-10-04T09:52:53.831Z,164.83
2022-10-04T09:53:53.954Z,164.51
2022-10-04T09:54:53.908Z,164.51
2022-10-04T09:55:53.952Z,164.35
2022-10-04T09:56:54.007Z,163.86
2022-10-04T09:57:54.054Z,165.31
2022-10-04T09:58:54.076Z,164.99
2022-10-04T09:59:54.075Z,165.64
2022-10-04T10:00:54.111Z,164.51
2022-10-04T10:01:54.203Z,165.15
2022-10-04T10:02:54.203Z,165.48
2022-10-04T10:03:54.214Z,165.97
2022-10-04T10:04:54.233Z,164.67
2022-10-04T10:05:54.268Z,164.67
2022-10-04T10:06:54.304Z,165.48
2022-10-04T10:07:54.355Z,165.31
2022-10-04T10:08:54.505Z,165.48
2022-10-04T10:09:54.411Z,166.13
2022-10-04T10:10:54.451Z,165.80
2022-10-04T10:11:54.510Z,165.80
2022-10-04T10:12:54.539Z,166.46
2022-10-04T10:13:54.598Z,165.31
2022-10-04T10:14:54.599Z,165.64
2022-10-04T10:15:54.702Z,165.48
2022-10-04T10:16:54.657Z,165.48
2022-10-04T10:17:54.707Z,165.97
2022-10-04T10:18:55.313Z,166.29
2022-10-04T10:19:54.771Z,165.64
2022-10-04T10:20:54.818Z,165.48
2022-10-04T10:21:54.840Z,165.48
2022-10-04T10:22:54.925Z,166.13
2022-10-04T10:23:54.936Z,165.97
2022-10-04T10:24:58.433Z,166.29
2022-10-04T10:25:54.991Z,165.97
2022-10-04T10:26:54.999Z,166.13
2022-10-04T10:27:55.087Z,165.64
2022-10-04T10:28:55.176Z,165.48
2022-10-04T10:29:55.134Z,165.64
2022-10-04T10:30:55.187Z,166.29
2022-10-04T10:31:55.209Z,166.96
2022-10-04T10:32:55.241Z,166.79
2022-10-04T10:33:55.282Z,166.29
2022-10-04T10:34:55.330Z,165.48
2022-10-04T10:35:55.362Z,166.96
2022-10-04T10:36:55.383Z,166.62
2022-10-04T10:37:55.432Z,166.62
2022-10-04T10:38:55.504Z,165.97
2022-10-04T10:39:55.527Z,165.80
2022-10-04T10:40:55.596Z,166.46
2022-10-04T10:41:55.609Z,166.96
2022-10-04T10:42:55.687Z,166.62
2022-10-04T10:43:55.705Z,167.12
2022-10-04T10:44:55.759Z,165.80
2022-10-04T10:45:55.756Z,165.97
2022-10-04T10:46:55.802Z,166.96
2022-10-04T10:47:55.824Z,166.29
2022-10-04T10:48:55.843Z,166.62
2022-10-04T10:49:55.885Z,167.46
2022-10-04T10:50:55.929Z,167.46
2022-10-04T10:51:55.972Z,167.29
2022-10-04T10:52:56.032Z,166.96
2022-10-04T10:53:56.038Z,166.96
2022-10-04T10:54:56.078Z,167.29
2022-10-04T10:55:56.109Z,166.79
2022-10-04T10:56:56.150Z,166.46
2022-10-04T10:57:56.204Z,167.62
2022-10-04T10:58:56.234Z,167.79
2022-10-04T10:59:56.275Z,166.96
2022-10-04T11:00:56.311Z,167.62
2022-10-04T11:01:56.467Z,167.62
2022-10-04T11:03:11.844Z,166.79
2022-10-04T11:03:56.580Z,167.46
2022-10-04T11:04:56.442Z,168.63
2022-10-04T11:05:56.486Z,167.79
2022-10-04T11:06:56.535Z,167.79
2022-10-04T11:07:56.710Z,168.63
2022-10-04T11:08:56.618Z,166.62
2022-10-04T11:09:56.646Z,167.12
2022-10-04T11:10:56.691Z,168.29
2022-10-04T11:11:56.729Z,168.63
2022-10-04T11:12:56.775Z,167.96
2022-10-04T11:13:56.807Z,167.79
2022-10-04T11:14:56.849Z,168.29
2022-10-04T11:15:56.925Z,166.79
2022-10-04T11:16:56.927Z,168.29
2022-10-04T11:17:57.003Z,168.46
2022-10-04T11:18:57.026Z,167.46
2022-10-04T11:19:57.028Z,167.62
2022-10-04T11:20:57.086Z,168.29
2022-10-04T11:21:57.164Z,168.29
2022-10-04T11:22:57.154Z,168.46
2022-10-04T11:23:57.149Z,167.79
2022-10-04T11:24:57.219Z,167.96
2022-10-04T11:25:57.246Z,168.63
2022-10-04T11:26:57.278Z,168.80
2022-10-04T11:27:57.557Z,168.80
2022-10-04T11:28:57.408Z,167.79
2022-10-04T11:29:57.377Z,169.31
2022-10-04T11:30:57.461Z,168.46
2022-10-04T11:31:57.436Z,168.80
2022-10-04T11:32:57.500Z,168.63
2022-10-04T11:33:57.561Z,168.12
2022-10-04T11:34:57.573Z,168.97
2022-10-04T11:35:57.611Z,168.80
2022-10-04T11:36:57.652Z,169.31
2022-10-04T11:37:57.694Z,168.46
2022-10-04T11:38:57.747Z,169.65
2022-10-04T11:39:57.763Z,169.14
2022-10-04T11:40:57.799Z,169.48
2022-10-04T11:41:57.831Z,169.31
2022-10-04T11:42:57.905Z,168.63
2022-10-04T11:43:57.901Z,169.48
2022-10-04T11:44:57.948Z,169.82
2022-10-04T11:45:57.999Z,168.97
2022-10-04T11:46:58.076Z,169.65
2022-10-04T11:47:58.083Z,170.34
2022-10-04T11:48:58.149Z,169.65
2022-10-04T11:49:58.143Z,169.48
2022-10-04T11:50:58.228Z,169.48
2022-10-04T11:52:02.026Z,169.82
2022-10-04T11:52:58.287Z,170.17
2022-10-04T11:53:58.342Z,169.31
2022-10-04T11:54:58.337Z,169.82
2022-10-04T11:55:58.388Z,169.82
2022-10-04T11:56:58.385Z,170.17
2022-10-04T11:57:58.430Z,169.48
2022-10-04T11:58:58.480Z,169.14
2022-10-04T11:59:58.511Z,169.65
2022-10-04T12:00:58.541Z,170.17
2022-10-04T12:01:58.580Z,170.17
2022-10-04T12:02:58.623Z,169.99
2022-10-04T12:03:58.777Z,169.99
2022-10-04T12:04:58.773Z,170.34
2022-10-04T12:05:58.742Z,170.17
2022-10-04T12:06:58.789Z,170.51
2022-10-04T12:07:58.834Z,170.51
2022-10-04T12:08:58.864Z,170.68
2022-10-04T12:10:01.081Z,169.65
2022-10-04T12:10:58.931Z,171.21
2022-10-04T12:11:58.999Z,170.17
2022-10-04T12:12:59.001Z,171.21
2022-10-04T12:13:59.051Z,171.03
2022-10-04T12:14:59.104Z,171.03
2022-10-04T12:15:59.233Z,170.86
2022-10-04T12:16:59.170Z,170.51
2022-10-04T12:17:59.279Z,170.34
2022-10-04T12:18:59.238Z,171.38
2022-10-04T12:19:59.259Z,171.21
2022-10-04T12:20:59.342Z,171.03
2022-10-04T12:21:59.411Z,171.38
2022-10-04T12:22:59.364Z,171.38
2022-10-04T12:23:59.398Z,172.08
2022-10-04T12:24:59.505Z,171.38
2022-10-04T12:25:59.517Z,170.86
2022-10-04T12:26:59.539Z,171.21
2022-10-04T12:27:59.752Z,171.03
2022-10-04T12:28:59.619Z,170.51